Time;durP1;ratioP1;P1;durP2;ratioP2;P2;SDS_P1;SDS_P2;PMS_P1;PMS_P2;Temp;Humidity;BMP_temperature;BMP_pressure;BME280_temperature;BME280_humidity;BME280_pressure;Samples;Min_cycle;Max_cycle;Signal;HPM_P1;HPM_P2
2022/09/08 00:02:09;;;;;;;6.40;2.38;;;;;;;;;;5028094;28;20036;-74
2022/09/08 00:04:56;;;;;;;5.15;2.72;;;;;;;;;;5031407;28;20495;-74
2022/09/08 00:07:42;;;;;;;5.55;2.10;;;;;;;;;;5028527;28;20091;-74
2022/09/08 00:10:28;;;;;;;3.95;2.58;;;;;;;;;;5026848;28;20032;-74
2022/09/08 00:13:14;;;;;;;4.43;2.25;;;;;;;;;;5025035;28;20048;-74
2022/09/08 00:16:03;;;;;;;7.95;2.97;;;;;;;;;;5024348;28;20480;-73
2022/09/08 00:18:52;;;;;;;6.35;2.10;;;;;;;;;;5016643;28;20072;-71
2022/09/08 00:21:37;;;;;;;7.03;3.75;;;;;;;;;;5017461;28;20052;-71
2022/09/08 00:24:23;;;;;;;3.17;2.10;;;;;;;;;;5022121;28;20037;-71
2022/09/08 00:27:08;;;;;;;5.07;2.33;;;;;;;;;;5014459;28;20034;-71
2022/09/08 00:29:54;;;;;;;6.57;3.03;;;;;;;;;;5012863;28;20029;-71
2022/09/08 00:32:39;;;;;;;7.00;2.80;;;;;;;;;;5026591;28;20060;-79
2022/09/08 00:35:33;;;;;;;8.30;3.55;;;;;;;;;;5013903;28;20101;-72
2022/09/08 00:38:19;;;;;;;3.22;2.22;;;;;;;;;;5020498;28;20037;-71
2022/09/08 00:41:09;;;;;;;4.82;2.53;;;;;;;;;;5023790;28;20036;-71
2022/09/08 00:44:00;;;;;;;5.68;2.45;;;;;;;;;;5014989;28;20104;-72
2022/09/08 00:46:46;;;;;;;6.00;2.53;;;;;;;;;;5028876;28;20388;-72
2022/09/08 00:49:32;;;;;;;3.63;2.65;;;;;;;;;;5021443;28;20370;-71
2022/09/08 00:52:18;;;;;;;3.90;2.47;;;;;;;;;;5020384;28;20084;-72
2022/09/08 00:55:06;;;;;;;6.07;2.65;;;;;;;;;;5019867;28;20025;-77
2022/09/08 00:57:51;;;;;;;3.47;2.28;;;;;;;;;;5029316;28;20025;-74
2022/09/08 01:00:38;;;;;;;5.28;3.17;;;;;;;;;;5013793;28;20350;-74
2022/09/08 01:03:24;;;;;;;5.25;2.70;;;;;;;;;;5017724;28;20121;-74
2022/09/08 01:06:12;;;;;;;5.38;2.70;;;;;;;;;;5015698;28;20082;-74
2022/09/08 01:15:18;;;;;;;4.80;2.38;;;;;;;;;;5017707;28;20037;-74
2022/09/08 01:18:03;;;;;;;3.90;2.42;;;;;;;;;;5017934;28;20455;-75
2022/09/08 01:20:59;;;;;;;3.40;2.45;;;;;;;;;;5015352;28;20461;-73
2022/09/08 01:24:03;;;;;;;4.65;2.88;;;;;;;;;;5019530;28;20037;-74
2022/09/08 01:27:04;;;;;;;4.53;2.63;;;;;;;;;;5014424;28;20488;-73
2022/09/08 01:29:52;;;;;;;7.10;2.58;;;;;;;;;;5019196;28;20144;-69
2022/09/08 01:32:39;;;;;;;7.05;2.95;;;;;;;;;;5019731;28;20048;-78
2022/09/08 01:35:29;;;;;;;5.22;2.53;;;;;;;;;;5016925;28;20116;-77
2022/09/08 01:38:15;;;;;;;5.38;2.78;;;;;;;;;;5015057;28;20087;-79
2022/09/08 01:41:00;;;;;;;6.00;2.53;;;;;;;;;;5027716;28;20029;-79
2022/09/08 01:43:46;;;;;;;4.47;2.75;;;;;;;;;;5024745;28;20033;-79
2022/09/08 01:46:32;;;;;;;4.05;2.40;;;;;;;;;;5017808;28;20036;-71
2022/09/08 01:49:18;;;;;;;4.78;2.65;;;;;;;;;;5021988;28;20048;-73
2022/09/08 01:52:04;;;;;;;6.28;2.45;;;;;;;;;;5024217;28;20049;-72
2022/09/08 01:54:50;;;;;;;7.43;2.90;;;;;;;;;;5017972;28;20079;-73
2022/09/08 01:57:36;;;;;;;7.45;2.72;;;;;;;;;;5016872;28;20080;-72
2022/09/08 02:00:21;;;;;;;3.15;2.80;;;;;;;;;;5022131;28;20528;-72
2022/09/08 02:03:07;;;;;;;6.43;2.75;;;;;;;;;;5022838;28;20025;-73
2022/09/08 02:05:58;;;;;;;5.22;2.65;;;;;;;;;;5015013;28;20036;-75
2022/09/08 02:08:43;;;;;;;5.38;2.63;;;;;;;;;;5035932;28;20026;-74
2022/09/08 02:11:29;;;;;;;6.15;2.55;;;;;;;;;;5014780;28;20025;-74
2022/09/08 02:14:15;;;;;;;5.47;2.72;;;;;;;;;;5026978;28;20037;-73
2022/09/08 02:17:00;;;;;;;4.90;2.55;;;;;;;;;;5018433;28;20075;-72
2022/09/08 02:19:46;;;;;;;5.32;2.78;;;;;;;;;;5028735;28;20094;-74
2022/09/08 02:22:32;;;;;;;4.65;2.50;;;;;;;;;;5026274;28;20089;-77
2022/09/08 02:25:17;;;;;;;7.60;2.60;;;;;;;;;;5020718;28;20120;-69
2022/09/08 02:28:03;;;;;;;5.00;2.53;;;;;;;;;;5026964;28;20040;-73
2022/09/08 02:30:48;;;;;;;5.65;2.70;;;;;;;;;;5027868;28;20057;-74
2022/09/08 02:33:34;;;;;;;6.55;3.03;;;;;;;;;;5014112;28;20034;-74
2022/09/08 02:36:19;;;;;;;5.25;2.30;;;;;;;;;;5015747;28;20362;-74
2022/09/08 02:39:05;;;;;;;5.78;2.53;;;;;;;;;;5020790;28;20018;-74
2022/09/08 02:41:51;;;;;;;4.72;2.08;;;;;;;;;;5017874;28;20047;-74
2022/09/08 02:44:36;;;;;;;3.72;2.10;;;;;;;;;;5013377;28;20033;-73
2022/09/08 02:47:22;;;;;;;4.97;2.17;;;;;;;;;;5015064;28;20037;-72
2022/09/08 02:50:07;;;;;;;3.55;1.98;;;;;;;;;;5018760;28;20029;-71
2022/09/08 02:52:53;;;;;;;2.97;2.00;;;;;;;;;;5015457;28;20026;-72
2022/09/08 02:55:39;;;;;;;2.90;1.60;;;;;;;;;;5010790;28;20064;-71
2022/09/08 03:01:48;;;;;;;3.10;1.73;;;;;;;;;;5015302;28;20366;-78
2022/09/08 03:04:34;;;;;;;4.25;1.80;;;;;;;;;;5022111;28;20036;-70
2022/09/08 03:07:20;;;;;;;2.65;1.70;;;;;;;;;;5020078;28;20109;-70
2022/09/08 03:10:06;;;;;;;4.60;1.88;;;;;;;;;;5024214;28;20044;-70
2022/09/08 03:12:55;;;;;;;4.03;1.67;;;;;;;;;;5016166;28;20119;-69
2022/09/08 03:15:40;;;;;;;4.22;1.73;;;;;;;;;;5026790;28;20119;-70
2022/09/08 03:18:26;;;;;;;2.53;1.35;;;;;;;;;;5030295;28;20113;-78
2022/09/08 03:21:13;;;;;;;4.72;1.50;;;;;;;;;;5027405;28;20030;-74
2022/09/08 03:23:59;;;;;;;3.38;1.48;;;;;;;;;;5026232;28;20057;-71
2022/09/08 03:26:44;;;;;;;2.13;1.40;;;;;;;;;;5013127;28;20112;-74
2022/09/08 03:29:30;;;;;;;2.70;1.50;;;;;;;;;;5015715;28;20062;-76
2022/09/08 03:32:16;;;;;;;3.25;1.92;;;;;;;;;;5025111;28;20038;-72
2022/09/08 03:35:01;;;;;;;2.38;1.52;;;;;;;;;;5018887;28;20108;-73
2022/09/08 03:37:47;;;;;;;3.88;1.63;;;;;;;;;;5014576;28;20037;-72
2022/09/08 03:40:34;;;;;;;2.67;1.50;;;;;;;;;;5020194;28;20036;-71
2022/09/08 03:43:19;;;;;;;2.10;1.30;;;;;;;;;;5016009;28;20037;-72
2022/09/08 03:46:06;;;;;;;3.28;1.58;;;;;;;;;;5013544;28;20103;-71
2022/09/08 03:48:51;;;;;;;5.28;1.40;;;;;;;;;;5028753;28;20504;-71
2022/09/08 03:51:37;;;;;;;4.22;1.20;;;;;;;;;;5020545;28;20109;-71
2022/09/08 03:54:56;;;;;;;3.78;1.42;;;;;;;;;;5027392;28;20542;-71
2022/09/08 03:57:35;;;;;;;6.05;1.83;;;;;;;;;;5019119;28;20037;-74
2022/09/08 04:00:20;;;;;;;3.00;1.38;;;;;;;;;;5025880;28;20038;-74
2022/09/08 04:03:06;;;;;;;3.13;1.30;;;;;;;;;;5026001;28;20025;-75
2022/09/08 04:05:51;;;;;;;3.88;1.35;;;;;;;;;;5023815;28;20037;-74
2022/09/08 04:08:37;;;;;;;4.40;1.63;;;;;;;;;;5026460;28;20373;-74
2022/09/08 04:11:23;;;;;;;5.20;1.27;;;;;;;;;;5028105;28;20397;-73
2022/09/08 04:14:08;;;;;;;3.10;1.33;;;;;;;;;;5026509;28;20427;-75
2022/09/08 04:16:54;;;;;;;3.55;1.05;;;;;;;;;;5021742;28;20021;-69
2022/09/08 04:19:39;;;;;;;1.50;1.20;;;;;;;;;;5020664;28;20453;-70
2022/09/08 04:22:25;;;;;;;3.08;1.25;;;;;;;;;;5018975;28;20025;-71
2022/09/08 04:25:11;;;;;;;3.65;1.75;;;;;;;;;;5023452;28;20097;-70
2022/09/08 04:27:56;;;;;;;2.30;1.02;;;;;;;;;;5022344;28;20033;-71
2022/09/08 04:30:42;;;;;;;1.83;1.40;;;;;;;;;;5014887;28;20654;-69
2022/09/08 04:33:27;;;;;;;2.38;1.10;;;;;;;;;;5017646;28;20040;-76
2022/09/08 04:36:17;;;;;;;2.47;0.98;;;;;;;;;;5025687;28;20042;-73
2022/09/08 04:39:03;;;;;;;1.63;1.10;;;;;;;;;;5014562;28;20025;-73
2022/09/08 04:41:48;;;;;;;1.30;1.20;;;;;;;;;;5029693;28;20092;-73
2022/09/08 04:44:34;;;;;;;1.48;1.30;;;;;;;;;;5011972;28;20025;-74
2022/09/08 04:47:19;;;;;;;4.95;1.30;;;;;;;;;;5020711;28;20428;-73
2022/09/08 04:50:05;;;;;;;2.15;1.17;;;;;;;;;;5025390;28;20448;-77
2022/09/08 04:52:51;;;;;;;3.00;1.10;;;;;;;;;;5024085;28;20424;-74
2022/09/08 04:55:39;;;;;;;1.58;1.23;;;;;;;;;;5029179;28;20083;-70
2022/09/08 04:58:25;;;;;;;1.47;1.20;;;;;;;;;;5030226;28;20373;-69
2022/09/08 05:01:14;;;;;;;1.27;0.88;;;;;;;;;;5024765;28;20033;-69
2022/09/08 05:04:01;;;;;;;3.38;1.10;;;;;;;;;;5027864;28;20022;-69
2022/09/08 05:06:46;;;;;;;1.55;1.02;;;;;;;;;;5032284;28;20508;-70
2022/09/08 05:09:32;;;;;;;1.70;1.10;;;;;;;;;;5029591;28;20384;-69
2022/09/08 05:12:17;;;;;;;2.75;1.52;;;;;;;;;;5029350;28;20025;-72
2022/09/08 05:15:03;;;;;;;3.88;1.30;;;;;;;;;;5031804;28;20376;-71
2022/09/08 05:17:49;;;;;;;2.53;1.60;;;;;;;;;;5030952;28;20041;-72
2022/09/08 05:20:34;;;;;;;1.27;1.00;;;;;;;;;;5020963;28;20404;-72
2022/09/08 05:23:20;;;;;;;1.85;1.38;;;;;;;;;;5029464;28;20037;-73
2022/09/08 05:26:07;;;;;;;2.70;1.50;;;;;;;;;;5015417;28;20033;-72
2022/09/08 05:28:53;;;;;;;1.98;1.20;;;;;;;;;;5030686;28;20025;-73
2022/09/08 05:31:39;;;;;;;3.80;1.52;;;;;;;;;;5029406;28;20104;-70
2022/09/08 05:34:24;;;;;;;2.45;1.40;;;;;;;;;;5014471;28;20510;-70
2022/09/08 05:37:10;;;;;;;2.15;1.02;;;;;;;;;;5014409;28;20022;-70
2022/09/08 05:39:55;;;;;;;3.50;1.23;;;;;;;;;;5013463;28;20022;-72
2022/09/08 05:42:42;;;;;;;1.98;1.00;;;;;;;;;;5015663;28;20037;-71
2022/09/08 05:45:27;;;;;;;1.38;1.05;;;;;;;;;;5022465;28;20079;-70
2022/09/08 05:48:13;;;;;;;2.85;1.05;;;;;;;;;;5032237;28;20396;-70
2022/09/08 05:50:59;;;;;;;1.40;1.00;;;;;;;;;;5021218;28;20033;-75
2022/09/08 05:53:45;;;;;;;2.17;1.20;;;;;;;;;;5012209;28;20027;-77
2022/09/08 05:56:31;;;;;;;2.72;1.55;;;;;;;;;;5034496;28;20128;-77
2022/09/08 05:59:17;;;;;;;1.45;1.33;;;;;;;;;;5025259;28;20033;-75
2022/09/08 06:02:02;;;;;;;3.67;1.60;;;;;;;;;;5024751;28;20017;-74
2022/09/08 06:04:48;;;;;;;3.58;1.50;;;;;;;;;;5030679;28;20042;-73
2022/09/08 06:07:34;;;;;;;5.65;1.25;;;;;;;;;;5031170;28;20057;-74
2022/09/08 06:10:20;;;;;;;1.25;1.05;;;;;;;;;;5013540;28;20022;-74
2022/09/08 06:13:05;;;;;;;2.47;1.20;;;;;;;;;;5029566;28;20026;-74
2022/09/08 06:15:51;;;;;;;1.80;1.08;;;;;;;;;;5032279;28;20064;-74
2022/09/08 06:18:38;;;;;;;4.97;1.17;;;;;;;;;;5021320;28;20456;-74
2022/09/08 06:21:25;;;;;;;6.75;1.25;;;;;;;;;;5020236;28;20029;-75
2022/09/08 06:24:11;;;;;;;2.25;1.20;;;;;;;;;;5022899;28;20183;-75
2022/09/08 06:27:15;;;;;;;3.53;1.02;;;;;;;;;;5021095;28;20033;-74
2022/09/08 06:30:01;;;;;;;2.55;1.08;;;;;;;;;;5021394;28;20032;-73
2022/09/08 06:32:55;;;;;;;2.65;1.10;;;;;;;;;;5019858;28;20513;-72
2022/09/08 06:35:59;;;;;;;2.72;1.05;;;;;;;;;;5016468;28;20030;-72
2022/09/08 06:38:46;;;;;;;2.90;1.27;;;;;;;;;;5026958;28;20026;-73
2022/09/08 06:41:36;;;;;;;4.22;1.17;;;;;;;;;;5016271;28;20033;-72
2022/09/08 06:44:26;;;;;;;1.75;1.15;;;;;;;;;;5014804;28;20101;-68
2022/09/08 06:47:14;;;;;;;3.80;1.27;;;;;;;;;;5020617;28;20095;-69
2022/09/08 06:50:00;;;;;;;5.13;1.38;;;;;;;;;;5028442;28;20061;-68
2022/09/08 06:52:46;;;;;;;2.40;1.23;;;;;;;;;;5027746;28;20030;-69
2022/09/08 06:55:51;;;;;;;2.42;1.50;;;;;;;;;;5017799;28;20161;-69
2022/09/08 06:58:40;;;;;;;5.18;1.08;;;;;;;;;;5013442;28;20036;-78
2022/09/08 07:02:04;;;;;;;3.38;0.85;;;;;;;;;;5017202;28;20021;-71
2022/09/08 07:04:52;;;;;;;1.73;1.02;;;;;;;;;;4983612;28;20034;-69
2022/09/08 07:07:43;;;;;;;2.15;1.48;;;;;;;;;;4981684;28;20480;-71
2022/09/08 07:10:35;;;;;;;3.53;1.20;;;;;;;;;;4990637;28;20073;-71
2022/09/08 07:13:26;;;;;;;1.83;0.90;;;;;;;;;;4983208;28;20093;-72
2022/09/08 07:16:38;;;;;;;2.42;1.10;;;;;;;;;;4980844;28;20027;-70
2022/09/08 07:19:27;;;;;;;1.20;0.95;;;;;;;;;;4991806;28;20030;-75
2022/09/08 07:22:20;;;;;;;1.45;0.95;;;;;;;;;;4992299;28;20052;-70
2022/09/08 07:25:24;;;;;;;2.42;0.98;;;;;;;;;;4990535;28;20030;-71
2022/09/08 07:28:11;;;;;;;5.97;1.25;;;;;;;;;;4990511;28;20417;-71
2022/09/08 07:31:01;;;;;;;1.52;1.00;;;;;;;;;;4990598;28;20030;-71
2022/09/08 07:33:49;;;;;;;1.98;1.02;;;;;;;;;;4994321;28;20501;-73
2022/09/08 07:36:44;;;;;;;1.60;1.10;;;;;;;;;;5021083;28;20087;-83
2022/09/08 07:39:48;;;;;;;2.42;1.27;;;;;;;;;;5018774;28;20026;-75
2022/09/08 07:42:33;;;;;;;3.70;1.30;;;;;;;;;;5020188;28;20030;-74
2022/09/08 07:45:20;;;;;;;3.05;1.05;;;;;;;;;;5029775;28;20040;-72
2022/09/08 07:48:12;;;;;;;2.53;1.38;;;;;;;;;;5026538;28;20099;-75
2022/09/08 07:51:06;;;;;;;1.83;0.88;;;;;;;;;;5017289;28;20034;-74
2022/09/08 07:53:57;;;;;;;2.35;0.80;;;;;;;;;;5015003;28;20045;-68
2022/09/08 07:56:52;;;;;;;1.48;0.80;;;;;;;;;;5015089;28;20029;-66
2022/09/08 07:59:38;;;;;;;0.82;0.77;;;;;;;;;;5025313;28;20038;-69
2022/09/08 08:02:23;;;;;;;2.72;1.20;;;;;;;;;;5029122;28;20029;-68
2022/09/08 08:05:09;;;;;;;2.08;0.80;;;;;;;;;;5017903;28;20041;-68
2022/09/08 08:08:13;;;;;;;1.13;0.93;;;;;;;;;;5021091;28;20036;-68
2022/09/08 08:11:04;;;;;;;5.20;1.10;;;;;;;;;;5016625;28;20033;-67
2022/09/08 08:14:04;;;;;;;1.00;0.90;;;;;;;;;;5013598;28;20053;-82
2022/09/08 08:16:52;;;;;;;1.15;0.80;;;;;;;;;;5018469;28;20022;-73
2022/09/08 08:19:52;;;;;;;1.33;0.95;;;;;;;;;;5014947;28;20038;-71
2022/09/08 08:22:46;;;;;;;1.30;0.88;;;;;;;;;;5019566;28;20034;-74
2022/09/08 08:25:41;;;;;;;1.70;1.00;;;;;;;;;;5022629;28;20492;-73
2022/09/08 08:28:29;;;;;;;1.30;1.10;;;;;;;;;;5013991;28;20026;-73
2022/09/08 08:31:18;;;;;;;1.63;0.85;;;;;;;;;;5031069;28;20041;-72
2022/09/08 08:34:11;;;;;;;1.63;0.82;;;;;;;;;;5022190;28;20118;-74
2022/09/08 08:37:00;;;;;;;2.67;0.90;;;;;;;;;;5018721;28;20173;-73
2022/09/08 08:39:47;;;;;;;2.88;1.00;;;;;;;;;;5020056;28;20480;-73
2022/09/08 08:42:54;;;;;;;0.80;0.70;;;;;;;;;;5025328;28;20041;-74
2022/09/08 08:45:58;;;;;;;1.08;0.70;;;;;;;;;;5019722;28;20018;-72
2022/09/08 08:48:52;;;;;;;0.70;0.70;;;;;;;;;;5023497;28;20357;-73
2022/09/08 08:52:03;;;;;;;2.10;0.77;;;;;;;;;;5025052;28;20029;-69
2022/09/08 08:54:57;;;;;;;2.55;1.38;;;;;;;;;;5025437;28;20091;-82
2022/09/08 08:58:12;;;;;;;0.82;0.80;;;;;;;;;;5016952;28;20026;-79
2022/09/08 09:01:13;;;;;;;1.10;0.90;;;;;;;;;;4974794;28;20064;-80
2022/09/08 09:04:17;;;;;;;1.25;1.00;;;;;;;;;;5027971;28;20044;-81
2022/09/08 09:07:02;;;;;;;1.30;0.90;;;;;;;;;;5031911;28;20111;-81
2022/09/08 09:10:09;;;;;;;2.88;0.90;;;;;;;;;;5025496;28;20037;-69
2022/09/08 09:13:20;;;;;;;1.00;0.80;;;;;;;;;;5024465;28;20021;-70
2022/09/08 09:16:25;;;;;;;1.17;0.65;;;;;;;;;;5006595;28;20037;-69
2022/09/08 09:19:29;;;;;;;3.03;0.90;;;;;;;;;;5017313;28;20536;-69
2022/09/08 09:22:15;;;;;;;1.33;0.77;;;;;;;;;;5021746;28;20022;-68
2022/09/08 09:25:12;;;;;;;0.80;0.73;;;;;;;;;;5017175;28;20021;-68
2022/09/08 09:27:57;;;;;;;2.47;0.88;;;;;;;;;;5018072;28;20512;-73
2022/09/08 09:30:55;;;;;;;1.13;0.80;;;;;;;;;;5014451;28;20026;-71
2022/09/08 09:33:44;;;;;;;1.52;0.80;;;;;;;;;;5024905;28;20040;-72
2022/09/08 09:36:39;;;;;;;2.43;0.80;;;;;;;;;;5019548;28;20112;-72
2022/09/08 09:39:44;;;;;;;2.25;0.80;;;;;;;;;;5024197;28;20275;-72
2022/09/08 09:42:41;;;;;;;2.78;1.00;;;;;;;;;;5015775;28;20056;-70
2022/09/08 09:45:30;;;;;;;1.23;0.80;;;;;;;;;;5021943;28;20040;-68
2022/09/08 09:48:33;;;;;;;1.50;0.98;;;;;;;;;;5018945;28;20404;-72
2022/09/08 09:51:32;;;;;;;1.30;0.80;;;;;;;;;;5023096;28;20392;-71
2022/09/08 09:54:20;;;;;;;2.45;0.90;;;;;;;;;;5025814;28;20037;-71
2022/09/08 09:57:06;;;;;;;2.15;0.90;;;;;;;;;;5022740;28;20041;-71
2022/09/08 10:00:10;;;;;;;4.25;0.73;;;;;;;;;;5020711;28;20034;-72
2022/09/08 10:02:58;;;;;;;0.98;0.70;;;;;;;;;;5017994;28;20468;-65
2022/09/08 10:05:56;;;;;;;2.40;0.73;;;;;;;;;;5019982;28;20037;-71
2022/09/08 10:08:55;;;;;;;1.48;0.60;;;;;;;;;;5018875;28;20033;-71
2022/09/08 10:11:40;;;;;;;;;;;;;;;;;;5017155;28;20021;-70
2022/09/08 10:14:38;;;;;;;1.52;0.70;;;;;;;;;;5019963;28;19913;-72
2022/09/08 10:17:33;;;;;;;1.77;0.82;;;;;;;;;;5014471;28;20035;-72
2022/09/08 10:20:18;;;;;;;1.55;1.02;;;;;;;;;;5013243;28;20034;-70
2022/09/08 10:23:04;;;;;;;2.55;0.90;;;;;;;;;;5023722;28;20018;-67
2022/09/08 10:26:08;;;;;;;1.95;0.80;;;;;;;;;;5013605;28;20393;-68
2022/09/08 10:29:16;;;;;;;2.47;1.00;;;;;;;;;;5014622;28;20481;-70
2022/09/08 10:32:07;;;;;;;1.70;0.70;;;;;;;;;;5014727;28;20552;-70
2022/09/08 10:35:04;;;;;;;0.82;0.75;;;;;;;;;;5010861;28;20040;-71
2022/09/08 10:37:50;;;;;;;0.80;0.80;;;;;;;;;;5014847;28;20033;-70
2022/09/08 10:40:47;;;;;;;4.15;1.27;;;;;;;;;;5016726;28;20037;-68
2022/09/08 10:43:36;;;;;;;1.75;0.90;;;;;;;;;;5014527;28;20025;-69
2022/09/08 10:46:40;;;;;;;1.25;0.70;;;;;;;;;;5023374;28;20068;-69
2022/09/08 10:49:29;;;;;;;2.00;0.90;;;;;;;;;;5024415;28;20029;-69
2022/09/08 10:52:23;;;;;;;2.80;1.07;;;;;;;;;;5015804;28;20065;-69
2022/09/08 10:55:27;;;;;;;2.47;0.93;;;;;;;;;;5020613;28;20029;-69
2022/09/08 10:58:13;;;;;;;1.27;0.98;;;;;;;;;;5025635;28;20112;-77
2022/09/08 11:01:13;;;;;;;1.90;1.00;;;;;;;;;;5018194;28;20038;-68
2022/09/08 11:04:18;;;;;;;2.05;0.98;;;;;;;;;;5027007;28;20032;-73
2022/09/08 11:07:11;;;;;;;3.00;1.02;;;;;;;;;;5025625;28;20124;-72
2022/09/08 11:10:11;;;;;;;2.05;0.82;;;;;;;;;;5033702;28;20350;-73
2022/09/08 11:13:16;;;;;;;2.00;0.90;;;;;;;;;;5021151;28;20037;-73
2022/09/08 11:16:05;;;;;;;2.15;1.15;;;;;;;;;;5029192;28;20042;-73
2022/09/08 11:18:53;;;;;;;2.15;1.10;;;;;;;;;;5025769;28;20026;-65
2022/09/08 11:21:47;;;;;;;3.53;1.10;;;;;;;;;;5024932;28;20025;-77
2022/09/08 11:24:39;;;;;;;2.13;0.75;;;;;;;;;;5020916;28;20071;-77
2022/09/08 11:27:42;;;;;;;2.13;0.93;;;;;;;;;;5024311;28;20042;-79
2022/09/08 11:30:48;;;;;;;1.77;0.93;;;;;;;;;;5017585;28;20033;-75
2022/09/08 11:33:52;;;;;;;1.77;1.00;;;;;;;;;;5028535;28;20029;-78
2022/09/08 11:36:56;;;;;;;1.77;0.95;;;;;;;;;;5030574;28;20025;-69
2022/09/08 11:40:01;;;;;;;1.98;1.02;;;;;;;;;;5023842;28;20100;-86
2022/09/08 11:42:56;;;;;;;1.52;1.00;;;;;;;;;;5033197;28;20022;-86
2022/09/08 11:45:48;;;;;;;3.05;0.93;;;;;;;;;;5026512;28;20021;-78
2022/09/08 11:48:52;;;;;;;2.33;1.10;;;;;;;;;;5019687;28;20038;-84
2022/09/08 11:51:56;;;;;;;2.75;1.48;;;;;;;;;;5028176;28;20064;-84
2022/09/08 11:55:01;;;;;;;2.92;1.38;;;;;;;;;;5025838;28;20030;-68
2022/09/08 11:57:57;;;;;;;1.42;0.95;;;;;;;;;;5021374;28;20072;-82
2022/09/08 12:00:58;;;;;;;1.70;0.88;;;;;;;;;;5027957;28;20053;-83
2022/09/08 12:03:58;;;;;;;1.55;1.00;;;;;;;;;;5031571;28;20030;-78
2022/09/08 12:06:46;;;;;;;3.70;1.25;;;;;;;;;;5032219;28;20132;-81
2022/09/08 12:09:36;;;;;;;2.42;0.90;;;;;;;;;;5033612;28;20113;-80
2022/09/08 12:12:30;;;;;;;2.58;1.00;;;;;;;;;;5026608;28;20052;-74
2022/09/08 12:15:19;;;;;;;2.05;0.85;;;;;;;;;;5018383;28;20057;-67
2022/09/08 12:18:10;;;;;;;3.20;1.20;;;;;;;;;;5036086;28;20021;-67
2022/09/08 12:21:11;;;;;;;4.82;1.02;;;;;;;;;;5027359;28;20353;-68
2022/09/08 12:24:02;;;;;;;2.40;1.05;;;;;;;;;;5016322;28;20040;-67
2022/09/08 12:27:02;;;;;;;3.15;0.82;;;;;;;;;;5016131;28;20040;-66
2022/09/08 12:29:47;;;;;;;;;;;;;;;;;;5018044;28;20030;-67
2022/09/08 12:32:42;;;;;;;2.53;1.10;;;;;;;;;;5017733;28;19920;-77
2022/09/08 12:35:46;;;;;;;1.05;0.80;;;;;;;;;;5014383;28;20397;-74
2022/09/08 12:38:40;;;;;;;3.58;1.17;;;;;;;;;;5014194;28;20030;-74
2022/09/08 12:41:33;;;;;;;5.68;1.13;;;;;;;;;;5021936;28;20093;-74
2022/09/08 12:44:22;;;;;;;2.13;1.10;;;;;;;;;;5020719;28;20026;-74
2022/09/08 12:47:16;;;;;;;2.38;1.00;;;;;;;;;;5024134;28;20040;-75
2022/09/08 12:50:12;;;;;;;2.53;1.10;;;;;;;;;;5015592;28;20045;-71
2022/09/08 12:53:04;;;;;;;6.40;1.20;;;;;;;;;;5020272;28;20049;-69
2022/09/08 12:56:00;;;;;;;4.88;1.10;;;;;;;;;;5021175;28;20030;-70
2022/09/08 12:58:54;;;;;;;2.05;0.88;;;;;;;;;;5028395;28;20033;-70
2022/09/08 13:01:42;;;;;;;5.10;2.20;;;;;;;;;;5025610;28;20488;-69
2022/09/08 13:04:33;;;;;;;2.38;0.93;;;;;;;;;;5025466;28;20112;-70
2022/09/08 13:07:37;;;;;;;4.25;1.05;;;;;;;;;;5032944;28;20056;-80
2022/09/08 13:10:49;;;;;;;4.78;1.17;;;;;;;;;;5019967;28;20033;-71
2022/09/08 13:13:37;;;;;;;3.55;0.80;;;;;;;;;;5023534;28;20039;-71
2022/09/08 13:16:26;;;;;;;3.17;1.15;;;;;;;;;;5021735;28;20033;-71
2022/09/08 13:19:14;;;;;;;1.80;0.85;;;;;;;;;;5023814;28;20036;-72
2022/09/08 13:22:18;;;;;;;2.70;0.82;;;;;;;;;;5021234;28;20086;-73
2022/09/08 13:25:16;;;;;;;2.45;1.40;;;;;;;;;;5025697;28;20025;-72
2022/09/08 13:28:23;;;;;;;4.00;1.00;;;;;;;;;;5019122;28;20408;-82
2022/09/08 13:31:14;;;;;;;3.33;1.08;;;;;;;;;;5025546;28;20025;-78
2022/09/08 13:34:06;;;;;;;2.15;0.90;;;;;;;;;;5031692;28;20499;-78
2022/09/08 13:36:51;;;;;;;1.60;0.98;;;;;;;;;;5016416;28;20057;-77
2022/09/08 13:39:55;;;;;;;3.20;1.05;;;;;;;;;;5015671;28;20030;-79
2022/09/08 13:42:53;;;;;;;2.10;1.00;;;;;;;;;;5022258;28;20036;-82
2022/09/08 13:45:45;;;;;;;1.35;0.90;;;;;;;;;;5016323;28;20108;-75
2022/09/08 13:48:39;;;;;;;1.10;0.80;;;;;;;;;;5031075;28;20061;-81
2022/09/08 13:51:27;;;;;;;2.58;1.13;;;;;;;;;;5017185;28;20041;-80
2022/09/08 13:54:28;;;;;;;2.63;1.08;;;;;;;;;;5027149;28;20029;-81
2022/09/08 13:57:32;;;;;;;2.15;1.05;;;;;;;;;;5020277;28;20129;-82
2022/09/08 14:00:19;;;;;;;3.90;1.05;;;;;;;;;;5015769;28;20033;-78
2022/09/08 14:03:05;;;;;;;2.47;1.00;;;;;;;;;;5023574;28;20045;-69
2022/09/08 14:05:52;;;;;;;3.40;1.02;;;;;;;;;;5030891;28;20040;-70
2022/09/08 14:08:44;;;;;;;4.80;1.02;;;;;;;;;;5025052;28;20049;-70
2022/09/08 14:11:53;;;;;;;2.33;0.80;;;;;;;;;;5029115;28;20026;-68
2022/09/08 14:14:45;;;;;;;6.57;1.00;;;;;;;;;;5021927;28;20544;-69
2022/09/08 14:17:37;;;;;;;3.40;1.15;;;;;;;;;;5013954;28;20432;-71
2022/09/08 14:20:25;;;;;;;2.65;1.58;;;;;;;;;;5024361;28;20363;-72
2022/09/08 14:23:28;;;;;;;1.90;1.13;;;;;;;;;;5023564;28;20032;-72
2022/09/08 14:26:19;;;;;;;2.38;1.00;;;;;;;;;;5027562;28;20535;-68
2022/09/08 14:29:17;;;;;;;3.30;1.15;;;;;;;;;;5016845;28;20125;-67
2022/09/08 14:32:15;;;;;;;2.08;1.10;;;;;;;;;;5017180;28;20029;-68
2022/09/08 14:35:05;;;;;;;2.47;1.25;;;;;;;;;;5013948;28;20076;-68
2022/09/08 14:37:57;;;;;;;2.92;1.10;;;;;;;;;;5018957;28;20041;-68
2022/09/08 14:41:01;;;;;;;4.10;1.05;;;;;;;;;;5016149;28;20038;-79
2022/09/08 14:43:47;;;;;;;2.80;1.23;;;;;;;;;;5058878;22;20403;-77
2022/09/08 14:46:32;;;;;;;2.88;0.80;;;;;;;;;;5033110;28;20083;-75
2022/09/08 14:49:28;;;;;;;1.95;0.93;;;;;;;;;;5021955;28;20098;-75
2022/09/08 14:52:20;;;;;;;14.15;2.10;;;;;;;;;;5031083;28;20030;-74
2022/09/08 14:55:14;;;;;;;8.88;1.75;;;;;;;;;;5039857;28;20025;-76
2022/09/08 14:58:17;;;;;;;1.55;0.82;;;;;;;;;;5035342;28;20032;-70
2022/09/08 15:01:17;;;;;;;3.85;1.27;;;;;;;;;;5040674;28;20464;-76
2022/09/08 15:04:12;;;;;;;3.33;1.10;;;;;;;;;;5031829;28;20461;-74
2022/09/08 15:06:59;;;;;;;2.65;1.20;;;;;;;;;;5043087;28;20065;-76
2022/09/08 15:10:05;;;;;;;2.65;1.05;;;;;;;;;;5045572;28;20059;-74
2022/09/08 15:12:57;;;;;;;4.15;0.95;;;;;;;;;;5035574;28;20036;-74
2022/09/08 15:15:44;;;;;;;3.58;1.20;;;;;;;;;;5042972;28;20108;-70
2022/09/08 15:18:39;;;;;;;3.80;1.30;;;;;;;;;;5018559;28;20353;-76
2022/09/08 15:21:41;;;;;;;2.63;1.08;;;;;;;;;;5021810;28;20029;-75
2022/09/08 15:24:39;;;;;;;3.42;1.10;;;;;;;;;;5041003;28;20022;-72
2022/09/08 15:27:25;;;;;;;3.60;1.08;;;;;;;;;;5031169;28;20095;-73
2022/09/08 15:30:11;;;;;;;7.82;1.27;;;;;;;;;;5041301;28;20277;-71
2022/09/08 15:33:07;;;;;;;3.90;0.90;;;;;;;;;;5035104;28;20407;-72
2022/09/08 15:35:55;;;;;;;1.80;1.00;;;;;;;;;;5033505;28;20033;-73
2022/09/08 15:38:44;;;;;;;3.75;0.93;;;;;;;;;;5024955;28;20120;-70
2022/09/08 15:41:31;;;;;;;2.25;1.45;;;;;;;;;;5038254;28;20545;-70
2022/09/08 15:44:40;;;;;;;2.72;1.30;;;;;;;;;;5040652;28;20033;-70
2022/09/08 15:47:26;;;;;;;;;;;;;;;;;;5042536;28;20108;-72
2022/09/08 15:50:23;;;;;;;1.30;0.90;;;;;;;;;;5045497;28;19916;-68
2022/09/08 15:53:17;;;;;;;2.83;1.20;;;;;;;;;;5036543;28;20025;-79
2022/09/08 15:56:06;;;;;;;4.15;1.38;;;;;;;;;;5025268;28;20106;-73
2022/09/08 15:58:54;;;;;;;3.93;1.50;;;;;;;;;;5044667;28;20024;-74
2022/09/08 16:01:53;;;;;;;4.38;1.48;;;;;;;;;;5046618;28;20267;-74
2022/09/08 16:04:39;;;;;;;;;;;;;;;;;;5045434;28;20036;-75
2022/09/08 16:07:27;;;;;;;3.38;1.20;;;;;;;;;;5040806;28;20279;-75
2022/09/08 16:10:15;;;;;;;3.20;1.17;;;;;;;;;;5049667;28;20403;-75
2022/09/08 16:13:21;;;;;;;4.45;1.20;;;;;;;;;;5043183;28;20036;-81
2022/09/08 16:16:24;;;;;;;4.30;1.50;;;;;;;;;;5054988;28;20388;-74
2022/09/08 16:19:11;;;;;;;8.57;2.28;;;;;;;;;;5037653;28;20036;-73
2022/09/08 16:22:16;;;;;;;2.25;1.15;;;;;;;;;;5043025;28;20039;-73
2022/09/08 16:25:04;;;;;;;4.97;1.50;;;;;;;;;;5034831;28;20071;-65
2022/09/08 16:27:53;;;;;;;5.78;1.30;;;;;;;;;;5040156;28;20111;-66
2022/09/08 16:30:39;;;;;;;3.80;1.40;;;;;;;;;;5047756;28;20036;-70
2022/09/08 16:33:26;;;;;;;4.10;1.50;;;;;;;;;;5049084;28;20028;-67
2022/09/08 16:36:16;;;;;;;2.85;1.25;;;;;;;;;;5042442;28;20020;-69
2022/09/08 16:39:08;;;;;;;6.82;1.30;;;;;;;;;;5044461;28;20033;-65
2022/09/08 16:42:00;;;;;;;5.25;1.23;;;;;;;;;;5041112;28;20033;-67
2022/09/08 16:44:51;;;;;;;3.97;1.20;;;;;;;;;;5044983;28;20025;-66
2022/09/08 16:47:44;;;;;;;2.35;1.25;;;;;;;;;;5035788;28;20037;-66
2022/09/08 16:50:31;;;;;;;3.53;1.10;;;;;;;;;;5043248;28;20080;-75
2022/09/08 16:53:23;;;;;;;4.60;1.42;;;;;;;;;;5039136;28;20041;-71
2022/09/08 16:56:09;;;;;;;4.82;1.20;;;;;;;;;;5039199;28;20025;-71
2022/09/08 16:59:17;;;;;;;3.20;1.58;;;;;;;;;;5021357;28;20024;-67
2022/09/08 17:02:03;;;;;;;3.80;1.45;;;;;;;;;;5049175;28;20383;-72
2022/09/08 17:04:53;;;;;;;4.38;1.20;;;;;;;;;;5041427;28;20076;-71
2022/09/08 17:07:47;;;;;;;3.13;1.08;;;;;;;;;;5029769;28;20037;-68
2022/09/08 17:10:50;;;;;;;2.17;1.00;;;;;;;;;;5036774;28;20234;-70
2022/09/08 17:13:35;;;;;;;5.43;2.28;;;;;;;;;;5035366;28;20083;-73
2022/09/08 17:16:44;;;;;;;2.97;1.10;;;;;;;;;;5023667;28;20068;-72
2022/09/08 17:19:48;;;;;;;6.75;2.28;;;;;;;;;;5031684;28;20033;-74